This London Heathrow Airport weather forecast is generated by the Met Office Weather Widget

AirNav RadarBox - Metar Weather
  London Heathrow Metar Weather
 

METAR = EGLL 031020Z 10008KT 040V140 CAVOK 23/08 Q1025

STATION........ EGLL
OBSERVED....... Fri Jul 3, 11:20 BST
NOW............ Fri Jul 3, 11:38 BST
AGE............ 18 min ago
WIND........... E at 9 mph
VISIBILITY..... greater than 7 miles
CLOUDS......... clear skies
TEMP........... 73°F (23°C)
DEWPT.......... 46°F (8°C)
HUMIDITY....... 38%
BAROMETER...... 1025 hPa (30.27 in Hg)

Fri Jul 03 2015, sunrise time : 03:55
Fri Jul 03 2015, sunset time : 20:16